Time;durP1;ratioP1;P1;durP2;ratioP2;P2;SDS_P1;SDS_P2;PMS_P1;PMS_P2;Temp;Humidity;BMP_temperature;BMP_pressure;BME280_temperature;BME280_humidity;BME280_pressure;Samples;Min_cycle;Max_cycle;Signal;HPM_P1;HPM_P2
2024/01/06 00:00:52;;;;;;;5.13;2.67;;;;;;;-145.69;58.88;52291.91;5072784;28;20225;-79
2024/01/06 00:03:19;;;;;;;6.73;2.83;;;;;;;-145.69;59.42;52283.97;5072570;28;20214;-80
2024/01/06 00:05:45;;;;;;;4.93;2.53;;;;;;;-145.69;59.15;52289.91;5072790;28;20199;-80
2024/01/06 00:08:12;;;;;;;6.93;3.23;;;;;;;-145.69;58.18;52295.84;5072934;28;20207;-80
2024/01/06 00:10:38;;;;;;;8.63;2.90;;;;;;;-145.69;58.71;52289.91;5072630;28;20203;-81
2024/01/06 00:13:06;;;;;;;7.77;2.80;;;;;;;-145.69;58.32;52305.75;5072350;28;20202;-80
2024/01/06 00:15:32;;;;;;;6.30;2.30;;;;;;;-145.69;58.75;52293.88;5084853;28;20209;-80
2024/01/06 00:17:59;;;;;;;3.70;2.37;;;;;;;-145.69;58.26;52309.72;5092821;28;20652;-81
2024/01/06 00:20:25;;;;;;;4.00;2.03;;;;;;;-145.69;57.59;52323.59;5092377;28;20221;-80
2024/01/06 00:22:52;;;;;;;6.27;1.77;;;;;;;-145.69;57.05;52305.75;5092689;28;20202;-80
2024/01/06 00:25:18;;;;;;;3.30;1.90;;;;;;;-145.69;57.43;52299.81;5091965;28;20546;-80
2024/01/06 00:27:45;;;;;;;8.53;2.60;;;;;;;-145.69;57.69;52303.78;5092843;28;20198;-81
2024/01/06 00:30:13;;;;;;;3.63;1.53;;;;;;;-145.69;57.08;52291.91;5092585;28;20205;-80
2024/01/06 00:32:40;;;;;;;4.10;1.60;;;;;;;-145.69;57.25;52319.63;5092546;28;20199;-80
2024/01/06 00:35:07;;;;;;;2.73;1.50;;;;;;;-145.69;57.32;52289.91;5093072;28;20203;-79
2024/01/06 00:37:33;;;;;;;3.60;1.80;;;;;;;-145.69;57.31;52305.75;5096506;28;20198;-80
2024/01/06 00:40:04;;;;;;;2.33;1.93;;;;;;;-145.69;57.80;52295.84;5096186;28;20283;-79
2024/01/06 00:42:30;;;;;;;6.43;1.83;;;;;;;-145.69;57.38;52258.22;5083037;28;20206;-79
2024/01/06 00:44:57;;;;;;;5.73;1.93;;;;;;;-145.69;58.02;52289.91;5083155;28;20194;-80
2024/01/06 00:47:24;;;;;;;3.73;1.93;;;;;;;-145.69;58.19;52278.03;5096265;28;20233;-80
2024/01/06 00:49:51;;;;;;;4.57;1.93;;;;;;;-145.69;57.83;52299.81;5096081;28;20555;-79
2024/01/06 00:52:17;;;;;;;2.67;1.60;;;;;;;-145.69;58.18;52291.91;5096067;28;20199;-79
2024/01/06 00:54:44;;;;;;;5.20;1.67;;;;;;;-145.69;58.08;52331.50;5096256;28;20210;-79
2024/01/06 00:57:10;;;;;;;2.20;1.70;;;;;;;-145.69;58.64;52301.81;5095912;28;20541;-79
2024/01/06 00:59:37;;;;;;;4.07;1.67;;;;;;;-145.69;58.71;52305.75;5081163;28;20624;-80
2024/01/06 01:02:03;;;;;;;3.97;1.53;;;;;;;-145.69;58.58;52274.06;5075836;28;20649;-80
2024/01/06 01:04:31;;;;;;;2.97;1.60;;;;;;;-145.69;58.96;52285.97;5075824;28;20202;-79
2024/01/06 01:06:57;;;;;;;2.97;1.63;;;;;;;-145.69;58.93;52293.88;5075174;28;20198;-79
2024/01/06 01:09:24;;;;;;;3.30;1.83;;;;;;;-145.69;59.09;52301.81;5075933;28;20206;-80
2024/01/06 01:11:50;;;;;;;1.77;1.50;;;;;;;-145.69;58.93;52339.44;5075833;28;20195;-79
2024/01/06 01:14:18;;;;;;;2.33;1.33;;;;;;;-145.69;58.62;52333.47;5075877;28;20202;-79
2024/01/06 01:16:45;;;;;;;8.33;1.97;;;;;;;-145.69;59.15;52335.47;5076383;28;20206;-79
2024/01/06 01:19:11;;;;;;;2.30;1.53;;;;;;;-145.69;59.15;52307.75;5075358;28;20656;-80
2024/01/06 01:21:39;;;;;;;3.80;1.70;;;;;;;-145.69;59.66;52303.78;5075356;28;20249;-78
2024/01/06 01:24:06;;;;;;;4.00;1.53;;;;;;;-145.69;59.20;52285.97;5075207;28;20213;-79
2024/01/06 01:26:32;;;;;;;5.07;2.00;;;;;;;-145.69;59.14;52309.72;5083172;28;20273;-79
2024/01/06 01:28:59;;;;;;;3.73;1.80;;;;;;;-145.69;59.41;52309.72;5095578;28;20197;-79
2024/01/06 01:31:25;;;;;;;4.40;2.00;;;;;;;-145.69;59.83;52299.81;5095132;28;20201;-79
2024/01/06 01:33:51;;;;;;;5.10;2.30;;;;;;;-145.69;59.83;52278.03;5078408;28;20207;-79
2024/01/06 01:36:18;;;;;;;7.97;2.17;;;;;;;-145.69;60.23;52317.66;5075277;28;20206;-79
2024/01/06 01:38:49;;;;;;;5.87;1.90;;;;;;;-145.69;60.16;52317.66;5075376;28;20199;-79
2024/01/06 01:41:18;;;;;;;4.77;2.23;;;;;;;-145.69;60.06;52305.75;5074826;28;20231;-79
2024/01/06 01:43:55;;;;;;;8.33;2.13;;;;;;;-145.69;60.09;52303.78;5075049;28;20249;-79
2024/01/06 01:46:26;;;;;;;3.93;1.93;;;;;;;-145.69;59.96;52264.16;5092362;28;20201;-78
2024/01/06 01:48:53;;;;;;;6.87;2.80;;;;;;;-145.69;59.91;52293.88;5094697;28;20618;-79
2024/01/06 01:51:21;;;;;;;2.43;1.73;;;;;;;-145.69;60.18;52323.59;5074788;28;20209;-79
2024/01/06 01:53:49;;;;;;;5.60;2.40;;;;;;;-145.69;60.64;52262.19;5074451;28;20264;-79
2024/01/06 01:56:17;;;;;;;6.33;2.80;;;;;;;-145.69;60.34;52309.72;5074608;28;20198;-80
2024/01/06 01:58:44;;;;;;;4.50;2.20;;;;;;;-145.69;60.03;52305.75;5074758;28;20254;-80
2024/01/06 02:01:10;;;;;;;7.00;2.20;;;;;;;-145.69;60.66;52289.91;5074338;28;20234;-80
2024/01/06 02:03:37;;;;;;;4.00;1.90;;;;;;;-145.69;60.47;52321.59;5074709;28;20194;-79
2024/01/06 02:06:06;;;;;;;7.97;2.20;;;;;;;-145.69;60.65;52317.66;5075010;28;20203;-79
2024/01/06 02:08:32;;;;;;;8.47;2.77;;;;;;;-145.69;60.61;52262.19;5074385;28;20202;-79
2024/01/06 02:11:00;;;;;;;6.70;1.70;;;;;;;-145.69;60.78;52289.91;5079475;28;20290;-80
2024/01/06 02:13:38;;;;;;;4.07;2.00;;;;;;;-145.69;60.63;52285.97;5094647;28;20259;-79
2024/01/06 02:16:06;;;;;;;6.43;1.70;;;;;;;-145.69;60.65;52305.75;5094002;28;20202;-80
2024/01/06 02:18:32;;;;;;;3.40;1.70;;;;;;;-145.69;60.11;52317.66;5094697;28;20202;-79
2024/01/06 02:21:00;;;;;;;3.20;1.67;;;;;;;-145.69;60.69;52295.84;5091369;28;20228;-79
2024/01/06 02:23:30;;;;;;;2.13;1.47;;;;;;;-145.69;59.75;52270.13;5093556;28;20210;-80
2024/01/06 02:25:57;;;;;;;3.23;1.70;;;;;;;-145.69;60.31;52299.81;5095302;28;20201;-79
2024/01/06 02:28:23;;;;;;;4.13;1.97;;;;;;;-145.69;60.42;52321.59;5094095;28;20209;-80
2024/01/06 02:30:52;;;;;;;5.53;1.97;;;;;;;-145.69;60.49;52285.97;5094393;28;20213;-79
2024/01/06 02:33:19;;;;;;;4.30;2.07;;;;;;;-145.69;60.37;52278.03;5094442;28;20202;-79
2024/01/06 02:35:46;;;;;;;3.83;1.80;;;;;;;-145.69;60.35;52311.69;5094094;28;20209;-79
2024/01/06 02:38:15;;;;;;;3.77;1.97;;;;;;;-145.69;60.56;52274.06;5094180;28;20202;-79
2024/01/06 02:40:43;;;;;;;7.30;2.33;;;;;;;-145.69;60.49;52291.91;5086850;28;20303;-79
2024/01/06 02:43:10;;;;;;;4.17;1.80;;;;;;;-145.69;60.34;52283.97;5074042;28;20202;-79
2024/01/06 02:45:38;;;;;;;6.13;2.10;;;;;;;-145.69;60.19;52313.69;5083894;28;20546;-79
2024/01/06 02:48:05;;;;;;;2.50;1.70;;;;;;;-145.69;60.48;52285.97;5093787;28;20245;-80
2024/01/06 02:50:33;;;;;;;3.50;1.60;;;;;;;-145.69;60.70;52266.16;5093972;28;20761;-79
2024/01/06 02:52:59;;;;;;;2.13;1.57;;;;;;;-145.69;60.64;52276.06;5093655;28;20234;-80
2024/01/06 02:55:26;;;;;;;3.00;1.60;;;;;;;-145.69;59.94;52317.66;5093471;28;20197;-79
2024/01/06 02:57:54;;;;;;;3.87;1.90;;;;;;;-145.69;60.19;52272.09;5084309;28;20302;-79
2024/01/06 03:00:21;;;;;;;4.77;2.07;;;;;;;-145.69;59.96;52305.75;5073548;28;20227;-80
2024/01/06 03:02:56;;;;;;;4.33;1.83;;;;;;;-145.69;59.82;52335.47;5073305;28;20561;-79
2024/01/06 03:05:26;;;;;;;4.20;1.60;;;;;;;-145.69;60.58;52293.88;5073415;28;20229;-80
2024/01/06 03:07:52;;;;;;;3.17;1.20;;;;;;;-145.69;60.31;52305.75;5073289;28;20430;-80
2024/01/06 03:10:19;;;;;;;3.53;1.43;;;;;;;-145.69;59.96;52293.88;5073385;28;20591;-79
2024/01/06 03:12:52;;;;;;;2.03;1.20;;;;;;;-145.69;60.44;52301.81;5073050;28;20649;-80
2024/01/06 03:15:20;;;;;;;5.67;1.40;;;;;;;-145.69;60.31;52301.81;5081707;28;20198;-80
2024/01/06 03:17:48;;;;;;;5.10;1.67;;;;;;;-145.69;60.81;52335.47;5093658;28;20206;-79
2024/01/06 03:20:15;;;;;;;3.33;1.73;;;;;;;-145.69;59.99;52270.13;5093328;28;20285;-80
2024/01/06 03:22:42;;;;;;;6.33;1.33;;;;;;;-145.69;59.92;52313.69;5093572;28;20193;-80
2024/01/06 03:25:12;;;;;;;2.83;1.60;;;;;;;-145.69;59.89;52285.97;5093579;28;20201;-79
2024/01/06 03:27:40;;;;;;;6.93;1.73;;;;;;;-145.69;60.01;52287.94;5093414;28;20197;-80
2024/01/06 03:30:11;;;;;;;6.73;1.60;;;;;;;-145.69;59.51;52303.78;5093368;28;20213;-79
2024/01/06 03:32:39;;;;;;;2.23;1.30;;;;;;;-145.69;59.77;52301.81;5078448;28;20290;-79
2024/01/06 03:35:06;;;;;;;2.43;1.40;;;;;;;-145.69;59.86;52309.72;5073100;28;20199;-79
2024/01/06 03:37:33;;;;;;;6.33;1.60;;;;;;;-145.69;59.66;52293.88;5073083;28;20230;-80
2024/01/06 03:40:05;;;;;;;3.07;1.50;;;;;;;-145.69;59.09;52270.13;5078437;28;20272;-80
2024/01/06 03:42:32;;;;;;;6.83;1.80;;;;;;;-145.69;59.18;52303.78;5093137;28;20366;-80
2024/01/06 03:45:01;;;;;;;3.60;1.60;;;;;;;-145.69;59.32;52287.94;5092601;28;20198;-80
2024/01/06 03:47:27;;;;;;;11.13;2.33;;;;;;;-145.69;59.13;52301.81;5093252;28;20293;-80
2024/01/06 03:49:55;;;;;;;11.03;2.63;;;;;;;-145.69;59.66;52325.56;5075815;28;20209;-79
2024/01/06 03:52:24;;;;;;;5.87;1.43;;;;;;;-145.69;59.53;52289.91;5072900;28;20784;-79
2024/01/06 03:54:50;;;;;;;4.63;1.60;;;;;;;-145.69;59.73;52289.91;5073242;28;20328;-79
2024/01/06 03:57:17;;;;;;;2.43;1.47;;;;;;;-145.69;59.52;52278.03;5092916;28;20556;-79
2024/01/06 03:59:45;;;;;;;9.90;2.10;;;;;;;-145.69;59.24;52266.16;5092584;28;20279;-79
2024/01/06 04:02:14;;;;;;;4.87;1.43;;;;;;;-145.69;59.64;52311.69;5092873;28;20627;-79
2024/01/06 04:04:40;;;;;;;5.90;2.10;;;;;;;-145.69;59.96;52283.97;5092572;28;20206;-80
2024/01/06 04:07:09;;;;;;;3.70;1.43;;;;;;;-145.69;59.46;52285.97;5073502;28;20569;-79
2024/01/06 04:09:36;;;;;;;3.37;1.70;;;;;;;-145.69;59.83;52301.81;5072637;28;20661;-79
2024/01/06 04:12:03;;;;;;;3.03;1.93;;;;;;;-145.69;59.99;52299.81;5076010;28;20230;-79
2024/01/06 04:14:29;;;;;;;1.87;1.60;;;;;;;-145.69;59.94;52317.66;5076826;28;20683;-79
2024/01/06 04:16:56;;;;;;;3.83;1.90;;;;;;;-145.69;59.79;52307.75;5097128;28;20617;-80
2024/01/06 04:19:23;;;;;;;6.23;1.60;;;;;;;-145.69;60.25;52301.81;5096795;28;20205;-79
2024/01/06 04:21:52;;;;;;;4.30;1.87;;;;;;;-145.69;59.84;52282.00;5096380;28;20222;-79
2024/01/06 04:24:20;;;;;;;3.40;1.73;;;;;;;-145.69;59.98;52309.72;5096488;28;20565;-80
2024/01/06 04:26:48;;;;;;;4.60;1.73;;;;;;;-145.69;59.97;52319.63;5096390;28;20648;-80
2024/01/06 04:29:17;;;;;;;6.40;2.00;;;;;;;-145.69;60.98;52297.84;5097023;28;20198;-79
2024/01/06 04:31:44;;;;;;;6.13;1.87;;;;;;;-145.69;60.65;52335.47;5096408;28;20205;-80
2024/01/06 04:34:12;;;;;;;3.47;1.60;;;;;;;-145.69;60.59;52282.00;5096684;28;20206;-80
2024/01/06 04:36:41;;;;;;;4.50;2.00;;;;;;;-145.69;61.11;52293.88;5096312;28;20565;-79
2024/01/06 04:39:12;;;;;;;9.73;1.80;;;;;;;-145.69;61.28;52293.88;5095786;28;20208;-79
2024/01/06 04:41:40;;;;;;;8.10;2.10;;;;;;;-145.69;60.99;52278.03;5096340;28;20268;-79
2024/01/06 04:44:13;;;;;;;5.57;2.10;;;;;;;-145.69;60.78;52291.91;5096436;28;20198;-79
2024/01/06 04:46:41;;;;;;;5.40;1.80;;;;;;;-145.69;61.25;52321.59;5114172;28;20224;-81
2024/01/06 04:49:08;;;;;;;2.90;2.10;;;;;;;-145.69;61.06;52301.81;5115059;28;20204;-79
2024/01/06 04:51:37;;;;;;;6.07;1.70;;;;;;;-145.69;61.24;52323.59;5116700;27;20207;-80
2024/01/06 04:54:07;;;;;;;2.53;1.43;;;;;;;-145.69;61.10;52307.75;5116548;28;20663;-80
2024/01/06 04:56:39;;;;;;;3.57;2.00;;;;;;;-145.69;60.83;52319.63;5103798;28;20230;-79
2024/01/06 04:59:07;;;;;;;6.17;1.57;;;;;;;-145.69;61.27;52291.91;5075430;28;20240;-79
2024/01/06 05:01:34;;;;;;;5.27;2.07;;;;;;;-145.69;60.83;52309.72;5075889;28;20280;-79
2024/01/06 05:04:00;;;;;;;4.70;2.20;;;;;;;-145.69;60.88;52283.97;5075453;28;20649;-79
2024/01/06 05:06:27;;;;;;;4.30;1.90;;;;;;;-145.69;60.71;52301.81;5075672;28;20203;-80
2024/01/06 05:08:53;;;;;;;3.80;1.80;;;;;;;-145.69;61.25;52264.16;5075913;28;20199;-79
2024/01/06 05:11:20;;;;;;;4.17;2.17;;;;;;;-145.69;60.74;52282.00;5075754;28;20199;-79
2024/01/06 05:13:46;;;;;;;4.83;1.97;;;;;;;-145.69;60.62;52317.66;5082867;28;20217;-79
2024/01/06 05:16:20;;;;;;;6.63;1.73;;;;;;;-145.69;60.68;52325.56;5095523;28;20202;-79
2024/01/06 05:18:52;;;;;;;3.10;1.63;;;;;;;-145.69;60.89;52305.75;5095757;28;20198;-79
2024/01/06 05:21:19;;;;;;;6.40;2.13;;;;;;;-145.69;60.63;52297.84;5094756;28;20229;-79
2024/01/06 05:23:45;;;;;;;6.23;2.13;;;;;;;-145.69;60.74;52315.66;5095691;28;20197;-79
2024/01/06 05:26:15;;;;;;;6.73;2.23;;;;;;;-145.69;60.74;52276.06;5095737;28;20194;-79
2024/01/06 05:28:44;;;;;;;4.03;1.87;;;;;;;-145.69;60.92;52313.69;5096702;28;20648;-80
2024/01/06 05:31:12;;;;;;;6.23;2.00;;;;;;;-145.69;60.36;52329.53;5084366;28;20284;-80
2024/01/06 05:33:40;;;;;;;6.77;1.83;;;;;;;-145.69;60.57;52333.47;5075107;28;20649;-79
2024/01/06 05:36:10;;;;;;;3.00;1.90;;;;;;;-145.69;60.29;52305.75;5075428;28;20202;-79
2024/01/06 05:38:39;;;;;;;5.40;2.20;;;;;;;-145.69;60.47;52309.72;5084055;28;20595;-79
2024/01/06 05:41:05;;;;;;;4.67;1.83;;;;;;;-145.69;60.29;52309.72;5093272;28;20202;-80
2024/01/06 05:43:33;;;;;;;5.00;1.80;;;;;;;-145.69;59.98;52337.44;5095565;28;20201;-80
2024/01/06 05:46:00;;;;;;;9.00;1.80;;;;;;;-145.69;60.51;52299.81;5094751;28;20198;-80
2024/01/06 05:48:26;;;;;;;4.83;2.10;;;;;;;-145.69;60.55;52323.59;5081637;28;20297;-80
2024/01/06 05:50:58;;;;;;;10.13;2.57;;;;;;;-145.69;60.11;52333.47;5074949;28;20287;-79
2024/01/06 05:53:31;;;;;;;7.43;2.10;;;;;;;-145.69;60.42;52321.59;5074637;28;20289;-79
2024/01/06 05:55:58;;;;;;;4.50;2.03;;;;;;;-145.69;60.45;52309.72;5074899;28;20205;-79
2024/01/06 05:58:28;;;;;;;3.87;1.90;;;;;;;-145.69;60.63;52317.66;5074665;28;20238;-79
2024/01/06 06:00:54;;;;;;;4.83;1.80;;;;;;;-145.69;60.75;52331.50;5074821;28;20321;-80
2024/01/06 06:03:21;;;;;;;7.87;2.70;;;;;;;-145.69;60.49;52317.66;5074470;28;20205;-79
2024/01/06 06:05:47;;;;;;;6.30;1.97;;;;;;;-145.69;60.38;52327.53;5075075;28;20202;-79
2024/01/06 06:08:21;;;;;;;5.93;2.13;;;;;;;-145.69;60.24;52293.88;5074642;28;20210;-79
2024/01/06 06:11:00;;;;;;;5.70;2.33;;;;;;;-145.69;60.52;52309.72;5074441;28;20209;-79
2024/01/06 06:13:27;;;;;;;6.87;2.20;;;;;;;-145.69;60.93;52355.28;5074459;28;20202;-79
2024/01/06 06:15:54;;;;;;;3.47;1.77;;;;;;;-145.69;60.58;52327.53;5086783;28;20298;-79
2024/01/06 06:18:21;;;;;;;9.47;2.00;;;;;;;-145.69;60.78;52337.44;5093916;28;20201;-78
2024/01/06 06:20:47;;;;;;;10.27;2.27;;;;;;;-145.69;60.94;52321.59;5094551;28;20198;-79
2024/01/06 06:23:17;;;;;;;3.90;2.30;;;;;;;-145.69;60.40;52307.75;5074695;28;20320;-79
2024/01/06 06:25:48;;;;;;;4.70;2.00;;;;;;;-145.69;60.62;52317.66;5075038;28;20202;-79
2024/01/06 06:28:15;;;;;;;2.73;1.80;;;;;;;-145.69;60.46;52297.84;5093939;28;20233;-79
2024/01/06 06:30:43;;;;;;;10.97;2.47;;;;;;;-145.69;60.66;52309.72;5094399;28;20201;-79
2024/01/06 06:33:17;;;;;;;5.13;1.90;;;;;;;-145.69;60.18;52323.59;5093109;28;20202;-80
2024/01/06 06:35:43;;;;;;;6.97;2.37;;;;;;;-145.69;60.09;52325.56;5094380;28;20297;-79
2024/01/06 06:38:10;;;;;;;7.73;2.67;;;;;;;-145.69;60.16;52270.13;5091310;28;20209;-78
2024/01/06 06:40:42;;;;;;;8.03;2.67;;;;;;;-145.69;59.99;52282.00;5074171;28;20202;-79
2024/01/06 06:43:09;;;;;;;10.83;3.43;;;;;;;-145.69;60.63;52317.66;5073307;28;20226;-79
2024/01/06 06:45:35;;;;;;;9.87;3.10;;;;;;;-145.69;60.10;52343.38;5083315;28;20198;-79
2024/01/06 06:48:06;;;;;;;8.10;2.50;;;;;;;-145.69;60.26;52299.81;5094005;28;20198;-78
2024/01/06 06:50:34;;;;;;;10.23;2.37;;;;;;;-145.69;60.24;52311.69;5094022;28;20206;-79
2024/01/06 06:53:03;;;;;;;7.57;2.00;;;;;;;-145.69;59.40;52357.25;5093451;28;20530;-79
2024/01/06 06:55:40;;;;;;;5.50;1.93;;;;;;;-145.69;59.21;52309.72;5088020;28;20649;-78
2024/01/06 06:58:08;;;;;;;3.87;1.83;;;;;;;-145.69;58.98;52305.75;5073554;28;20230;-78
2024/01/06 07:00:44;;;;;;;6.27;2.17;;;;;;;-145.69;59.01;52307.75;5073353;28;20210;-79
2024/01/06 07:03:16;;;;;;;5.80;2.17;;;;;;;-145.69;59.11;52321.59;5073301;28;20226;-78
2024/01/06 07:05:45;;;;;;;5.87;1.60;;;;;;;-145.69;59.26;52313.69;5073598;28;20201;-79
2024/01/06 07:08:16;;;;;;;4.03;1.80;;;;;;;-145.69;59.28;52278.03;5073568;28;20230;-78
2024/01/06 07:10:47;;;;;;;9.47;1.83;;;;;;;-145.69;59.86;52317.66;5073222;28;20661;-78
2024/01/06 07:13:19;;;;;;;4.87;1.57;;;;;;;-145.69;59.02;52289.91;5073664;28;20649;-79
2024/01/06 07:15:48;;;;;;;7.17;1.93;;;;;;;-145.69;59.08;52283.97;5085596;28;20656;-78
2024/01/06 07:18:15;;;;;;;6.20;1.90;;;;;;;-145.69;58.93;52293.88;5093346;28;20198;-78
2024/01/06 07:20:43;;;;;;;3.17;1.80;;;;;;;-145.69;59.41;52321.59;5093584;28;20215;-78
2024/01/06 07:23:15;;;;;;;4.30;1.90;;;;;;;-145.69;59.70;52276.06;5093297;28;20236;-78
2024/01/06 07:25:44;;;;;;;2.07;1.40;;;;;;;-145.69;59.90;52299.81;5093397;28;20202;-78
2024/01/06 07:28:10;;;;;;;3.30;1.87;;;;;;;-145.69;59.36;52313.69;5092538;28;20206;-78
2024/01/06 07:30:39;;;;;;;6.93;1.83;;;;;;;-145.69;59.02;52335.47;5078551;28;20212;-78
2024/01/06 07:33:06;;;;;;;2.73;1.40;;;;;;;-145.69;59.24;52325.56;5072948;28;20209;-79
2024/01/06 07:35:32;;;;;;;4.00;2.10;;;;;;;-145.69;59.46;52305.75;5073140;28;20241;-78
2024/01/06 07:38:00;;;;;;;5.47;2.70;;;;;;;-145.69;59.39;52333.47;5072706;28;20202;-78
2024/01/06 07:40:27;;;;;;;2.97;1.87;;;;;;;-145.69;59.22;52329.53;5072934;28;20194;-78
2024/01/06 07:42:53;;;;;;;8.80;2.97;;;;;;;-145.69;59.70;52301.81;5085017;28;20217;-79
2024/01/06 07:45:22;;;;;;;8.50;3.03;;;;;;;-145.69;59.65;52339.44;5092065;28;20285;-78
2024/01/06 07:47:53;;;;;;;9.17;3.20;;;;;;;-145.69;59.76;52313.69;5092101;28;20194;-79
2024/01/06 07:50:19;;;;;;;7.83;3.13;;;;;;;-145.69;60.19;52325.56;5093129;28;20231;-79
2024/01/06 07:52:46;;;;;;;8.90;3.33;;;;;;;-145.69;59.80;52357.25;5093047;28;20209;-78
2024/01/06 07:55:15;;;;;;;7.50;3.13;;;;;;;-145.69;59.91;52337.44;5092929;28;20205;-78
2024/01/06 07:57:44;;;;;;;11.30;3.10;;;;;;;-145.69;60.00;52315.66;5093776;28;20276;-79
2024/01/06 08:00:14;;;;;;;15.83;5.30;;;;;;;-145.69;59.81;52264.16;5093109;28;20233;-78
2024/01/06 08:02:40;;;;;;;54.67;18.80;;;;;;;-145.69;59.80;52285.97;5092981;28;20226;-78
2024/01/06 08:05:13;;;;;;;59.57;19.47;;;;;;;-145.69;59.89;52321.59;5073777;28;20207;-78
2024/01/06 08:07:41;;;;;;;42.00;15.33;;;;;;;-145.69;59.91;52333.47;5072681;28;20210;-78
2024/01/06 08:10:10;;;;;;;48.60;20.13;;;;;;;-145.69;59.40;52297.84;5072983;28;20205;-80
2024/01/06 08:12:40;;;;;;;27.33;11.00;;;;;;;-145.69;59.53;52293.88;5072531;28;20209;-78
2024/01/06 08:15:08;;;;;;;12.77;6.13;;;;;;;-145.69;59.36;52313.69;5081544;28;20198;-79
2024/01/06 08:17:35;;;;;;;8.63;3.73;;;;;;;-145.69;59.27;52345.38;5092540;28;20562;-79
2024/01/06 08:20:01;;;;;;;10.17;3.57;;;;;;;-145.69;58.80;52268.13;5091182;28;20229;-79
2024/01/06 08:22:29;;;;;;;9.20;4.00;;;;;;;-145.69;58.86;52335.47;5072092;28;20222;-79
2024/01/06 08:24:56;;;;;;;9.20;4.67;;;;;;;-145.69;58.68;52349.31;5072683;28;20199;-79
2024/01/06 08:27:23;;;;;;;12.13;5.20;;;;;;;-145.69;57.98;52305.75;5087396;28;20201;-78
2024/01/06 08:29:50;;;;;;;28.50;10.63;;;;;;;-145.69;58.85;52301.81;5092473;28;20205;-79
2024/01/06 08:32:19;;;;;;;19.43;6.87;;;;;;;-145.69;58.03;52307.75;5092848;28;20274;-79
2024/01/06 08:34:46;;;;;;;10.27;3.90;;;;;;;-145.69;57.46;52321.59;5093578;28;20194;-79
2024/01/06 08:37:13;;;;;;;9.67;3.10;;;;;;;-145.69;57.33;52317.66;5091122;28;20209;-79
2024/01/06 08:39:41;;;;;;;6.00;2.60;;;;;;;-145.69;56.37;52305.75;5092287;28;20198;-79
2024/01/06 08:42:10;;;;;;;5.53;1.97;;;;;;;-145.69;56.47;52293.88;5092330;28;20676;-79
2024/01/06 08:44:39;;;;;;;7.20;2.30;;;;;;;-145.69;56.72;52325.56;5092664;28;20194;-79
2024/01/06 08:47:08;;;;;;;5.40;3.20;;;;;;;-145.69;55.74;52317.66;5092603;28;20564;-79
2024/01/06 08:49:34;;;;;;;12.00;3.63;;;;;;;-145.69;56.19;52282.00;5092102;28;20202;-80
2024/01/06 08:52:01;;;;;;;6.73;3.40;;;;;;;-145.69;55.99;52295.84;5092718;28;20202;-80
2024/01/06 08:54:29;;;;;;;7.30;2.23;;;;;;;-145.69;55.15;52297.84;5086844;28;20669;-79
2024/01/06 08:56:57;;;;;;;5.33;1.60;;;;;;;-145.69;55.04;52291.91;5073787;28;20619;-78
2024/01/06 08:59:23;;;;;;;6.53;2.07;;;;;;;-145.69;55.17;52303.78;5075537;28;20237;-78
2024/01/06 09:01:50;;;;;;;4.83;1.90;;;;;;;-145.69;54.90;52297.84;5075734;28;20654;-79
2024/01/06 09:04:17;;;;;;;2.90;1.77;;;;;;;-145.69;54.79;52327.53;5076015;28;20227;-78
2024/01/06 09:06:44;;;;;;;4.67;1.67;;;;;;;-145.69;54.45;52309.72;5087365;28;20198;-79
2024/01/06 09:09:14;;;;;;;2.90;1.67;;;;;;;-145.69;54.63;52297.84;5096076;28;20208;-79
2024/01/06 09:11:41;;;;;;;6.07;1.80;;;;;;;-145.69;54.27;52268.13;5088521;28;20203;-79
2024/01/06 09:14:10;;;;;;;5.50;1.90;;;;;;;-145.69;54.51;52297.84;5075777;28;20199;-78
2024/01/06 09:16:37;;;;;;;4.93;1.83;;;;;;;-145.69;54.58;52321.59;5075429;28;20211;-78
2024/01/06 09:19:03;;;;;;;4.63;1.90;;;;;;;-145.69;54.16;52307.75;5075457;28;20238;-78
2024/01/06 09:21:29;;;;;;;5.50;1.90;;;;;;;-145.69;53.67;52287.94;5075628;28;20215;-78
2024/01/06 09:23:56;;;;;;;6.50;2.20;;;;;;;-145.69;55.08;52305.75;5074238;28;20454;-78
2024/01/06 09:26:23;;;;;;;3.43;1.67;;;;;;;-145.69;54.28;52287.94;5082080;28;20226;-79
2024/01/06 09:28:49;;;;;;;6.07;1.90;;;;;;;-145.69;53.99;52282.00;5087505;28;20205;-78
2024/01/06 09:31:17;;;;;;;5.53;2.07;;;;;;;-145.69;53.51;52301.81;5075518;28;20203;-79
2024/01/06 09:33:43;;;;;;;3.73;1.90;;;;;;;-145.69;52.82;52297.84;5074935;28;20658;-79
2024/01/06 09:36:12;;;;;;;3.27;1.87;;;;;;;-145.69;52.46;52297.84;5083968;28;20205;-79
2024/01/06 09:38:38;;;;;;;7.13;2.10;;;;;;;-145.69;52.57;52285.97;5095391;28;20194;-79
2024/01/06 09:41:05;;;;;;;6.70;2.10;;;;;;;-145.69;52.77;52305.75;5094973;28;20237;-79
2024/01/06 09:43:33;;;;;;;3.67;1.90;;;;;;;-145.69;52.15;52278.03;5079041;28;20252;-79
2024/01/06 09:46:07;;;;;;;6.23;2.13;;;;;;;-145.69;51.36;52321.59;5085379;28;20681;-79
2024/01/06 09:48:41;;;;;;;4.97;2.33;;;;;;;-145.69;51.23;52252.28;5075205;28;20228;-78
2024/01/06 09:51:11;;;;;;;4.13;1.80;;;;;;;-145.69;51.46;52256.25;5074827;28;20256;-78
2024/01/06 09:53:47;;;;;;;5.63;2.13;;;;;;;-145.69;51.83;52266.16;5074862;28;20226;-80
2024/01/06 09:56:16;;;;;;;6.13;1.97;;;;;;;-145.69;52.94;52297.84;5074825;28;20205;-81
2024/01/06 09:58:44;;;;;;;2.93;1.83;;;;;;;-145.69;52.95;52250.31;5074677;28;20250;-81
2024/01/06 10:01:11;;;;;;;3.77;2.17;;;;;;;-145.69;52.39;52254.28;5094094;28;20194;-79
2024/01/06 10:03:39;;;;;;;4.13;1.73;;;;;;;-145.69;52.53;52283.97;5094456;28;20239;-79
2024/01/06 10:06:07;;;;;;;4.80;1.50;;;;;;;-145.69;51.44;52280.00;5094946;28;20302;-79
2024/01/06 10:08:34;;;;;;;3.90;1.73;;;;;;;-145.69;51.66;52254.28;5094963;28;20232;-79
2024/01/06 10:11:04;;;;;;;9.90;2.50;;;;;;;-145.69;51.91;52289.91;5094645;28;20607;-79
2024/01/06 10:13:30;;;;;;;6.70;2.03;;;;;;;-145.69;52.21;52250.31;5094774;28;20194;-78
2024/01/06 10:15:57;;;;;;;5.57;2.23;;;;;;;-145.69;51.88;52293.88;5094720;28;20213;-79
2024/01/06 10:18:26;;;;;;;10.93;2.57;;;;;;;-145.69;51.68;52270.13;5094620;28;20198;-79
2024/01/06 10:20:54;;;;;;;6.63;2.97;;;;;;;-145.69;51.13;52246.34;5094417;28;20285;-80
2024/01/06 10:23:23;;;;;;;7.93;2.20;;;;;;;-145.69;50.62;52278.03;5094729;28;20286;-80
2024/01/06 10:25:53;;;;;;;2.80;1.70;;;;;;;-145.69;49.08;52244.38;5094618;28;20560;-80
2024/01/06 10:28:19;;;;;;;1.73;1.10;;;;;;;-145.69;49.65;52278.03;5094526;28;20202;-80
2024/01/06 10:30:46;;;;;;;2.43;1.53;;;;;;;-145.69;49.50;52264.16;5094334;28;20251;-80
2024/01/06 10:33:13;;;;;;;3.13;1.53;;;;;;;-145.69;48.58;52254.28;5094457;28;20205;-79
2024/01/06 10:35:40;;;;;;;4.63;1.67;;;;;;;-145.69;48.82;52258.22;5093949;28;20644;-80
2024/01/06 10:38:09;;;;;;;3.07;1.33;;;;;;;-145.69;48.53;52285.97;5094238;28;20653;-80
2024/01/06 10:40:35;;;;;;;3.83;1.47;;;;;;;-145.69;48.82;52270.13;5094080;28;20235;-80
2024/01/06 10:43:03;;;;;;;7.10;2.20;;;;;;;-145.69;47.15;52270.13;5094185;28;20222;-81
2024/01/06 10:45:32;;;;;;;3.13;1.40;;;;;;;-145.69;48.04;52266.16;5094262;28;20194;-79
2024/01/06 10:48:00;;;;;;;4.67;1.40;;;;;;;-145.69;47.93;52274.06;5093981;28;20194;-79
2024/01/06 10:50:29;;;;;;;7.10;1.83;;;;;;;-145.69;48.52;52254.28;5094060;28;20202;-81
2024/01/06 10:52:57;;;;;;;5.10;1.50;;;;;;;-145.69;49.20;52262.19;5092206;28;20221;-82
2024/01/06 10:55:27;;;;;;;6.43;1.70;;;;;;;-145.69;49.20;52258.22;5093660;28;20209;-81
2024/01/06 10:57:57;;;;;;;2.30;1.77;;;;;;;-145.69;48.46;52268.13;5093496;28;20288;-81
2024/01/06 11:00:24;;;;;;;4.80;1.80;;;;;;;-145.69;47.90;52254.28;5093975;28;20194;-80
2024/01/06 11:02:52;;;;;;;3.57;1.70;;;;;;;-145.69;48.41;52276.06;5093605;28;20230;-81
2024/01/06 11:05:21;;;;;;;2.43;1.70;;;;;;;-145.69;48.99;52240.41;5093924;28;20281;-81
2024/01/06 11:07:51;;;;;;;4.30;1.73;;;;;;;-145.69;48.89;52276.06;5078015;28;20198;-80
2024/01/06 11:10:19;;;;;;;3.67;1.50;;;;;;;-145.69;48.72;52266.16;5073620;28;20207;-78
2024/01/06 11:13:07;;;;;;;3.33;1.57;;;;;;;-145.69;49.06;52293.88;5087960;28;20289;-80
2024/01/06 11:15:40;;;;;;;4.80;1.53;;;;;;;-145.69;49.44;52282.00;5093501;28;20198;-80
2024/01/06 11:18:07;;;;;;;4.97;1.50;;;;;;;-145.69;49.82;52266.16;5091102;28;20251;-79
2024/01/06 11:20:36;;;;;;;1.67;1.33;;;;;;;-145.69;49.97;52254.28;5092913;28;20732;-78